Hauptseite
METAR-TAF:

METAR-TAF

Flughäfen :

Wellsville Municipal Airport (Tarantine Field)

Wellsville, New York, Vereinigte Staaten

Breite: 42-06-27N, Länge: 077-59-04W, Höhe: 647 m

Beobachtung

Neuester Wetterbericht von vor 17 Minuten, um 02:56 UTC
Wind 4 kt aus West/Nordwest
Temperatur -7°C
Luftfeuchtigkeit 93%
Luftdruck 1019 hPa
Sichtweite: 16.1 km
Leicht bewölkt in der Höhe von 1400 ft
Durchbrochene Bewölkung in der Höhe von 2700 ft
Geschlossene Wolkendecke in der Höhe von 3600 ft

METAR: KELZ 160256Z AUTO 30004KT 10SM FEW014 BKN027 OVC036 M07/M08 A3009 RMK AO2 SLP219 60000 T10721083 51009

Zeit: 22:13 (03:13 UTC)


TAF: fehlend

Wetterbeobachtungen und Prognosen von mehr als 4000 Flughäfen (METAR und TAF Bericht).

Die verfügbaren Stationen werden durch gelbe und rote Markierungen auf der Karte dargestellt.

Führen Sie die Maus auf sie, um den Namen der Station zu sehen.

Darauf klicken, um die Beobachtung von Wetterbeobachtungen und Prognosen zu sehen.

Um die Karte zu ändern : klicken Sie auf den grünen Tasten mit einem schwarzen Kreuz Zum Vergrößern, auf den grünen Button mit einem Gedankenstrich zu verkleinern, oder auf die grünen Pfeile für benachbarte Karten.


METAR-TAF: